Time;durP1;ratioP1;P1;durP2;ratioP2;P2;SDS_P1;SDS_P2;PMS_P1;PMS_P2;Temp;Humidity;BMP_temperature;BMP_pressure;BME280_temperature;BME280_humidity;BME280_pressure;Samples;Min_cycle;Max_cycle;Signal;HPM_P1;HPM_P2
2021/12/14 00:01:46;;;;;;;20.83;11.77;;;;;;;;;;5111094;28;20040;-83
2021/12/14 00:04:16;;;;;;;20.40;11.95;;;;;;;;;;5110806;28;20039;-82
2021/12/14 00:06:44;;;;;;;19.38;12.00;;;;;;;;;;5111404;28;20077;-77
2021/12/14 00:09:22;;;;;;;17.17;11.60;;;;;;;;;;5093475;28;20039;-77
2021/12/14 00:12:06;;;;;;;20.35;11.95;;;;;;;;;;5110771;28;20414;-77
2021/12/14 00:17:13;;;;;;;21.85;12.43;;;;;;;;;;5110695;28;20068;-76
2021/12/14 00:19:39;;;;;;;21.58;12.82;;;;;;;;;;5093891;28;20157;-82
2021/12/14 00:22:16;;;;;;;21.52;12.82;;;;;;;;;;5093533;28;20040;-82
2021/12/14 00:24:43;;;;;;;22.40;13.02;;;;;;;;;;5093678;28;20051;-83
2021/12/14 00:27:11;;;;;;;22.45;12.48;;;;;;;;;;5110028;28;20048;-83
2021/12/14 00:29:41;;;;;;;20.27;12.35;;;;;;;;;;5093859;28;20049;-82
2021/12/14 00:32:10;;;;;;;19.17;12.88;;;;;;;;;;5110635;28;20079;-76
2021/12/14 00:34:42;;;;;;;23.20;12.85;;;;;;;;;;5110578;28;20380;-77
2021/12/14 00:37:10;;;;;;;23.02;13.80;;;;;;;;;;5110181;28;20039;-77
2021/12/14 00:39:36;;;;;;;24.02;13.52;;;;;;;;;;5110505;28;20040;-77
2021/12/14 00:42:03;;;;;;;22.67;13.45;;;;;;;;;;5092887;28;20051;-82
2021/12/14 00:44:29;;;;;;;24.25;14.00;;;;;;;;;;5110993;28;20052;-83
2021/12/14 00:46:55;;;;;;;22.80;14.05;;;;;;;;;;5110625;28;20044;-82
2021/12/14 00:49:22;;;;;;;25.08;14.10;;;;;;;;;;5093435;28;20040;-77
2021/12/14 00:51:48;;;;;;;23.50;14.13;;;;;;;;;;5110518;28;20047;-77
2021/12/14 00:54:16;;;;;;;22.77;13.65;;;;;;;;;;5109987;28;20047;-77
2021/12/14 00:56:42;;;;;;;25.55;14.98;;;;;;;;;;5109856;28;20185;-77
2021/12/14 00:59:09;;;;;;;24.48;14.07;;;;;;;;;;5110009;28;20451;-77
2021/12/14 01:01:39;;;;;;;24.65;14.02;;;;;;;;;;5093409;28;20096;-77
2021/12/14 01:04:07;;;;;;;23.33;14.52;;;;;;;;;;5110785;28;20114;-77
2021/12/14 01:06:35;;;;;;;27.00;15.02;;;;;;;;;;5110104;28;20054;-77
2021/12/14 01:09:03;;;;;;;24.55;14.63;;;;;;;;;;5109803;28;20079;-77
2021/12/14 01:11:36;;;;;;;27.35;15.20;;;;;;;;;;5092623;28;20447;-77
2021/12/14 01:14:06;;;;;;;27.92;15.38;;;;;;;;;;5109364;28;20047;-78
2021/12/14 01:16:48;;;;;;;24.70;14.82;;;;;;;;;;5093404;28;20088;-77
2021/12/14 01:19:23;;;;;;;28.85;15.57;;;;;;;;;;5109557;28;20046;-77
2021/12/14 01:25:03;;;;;;;25.33;15.25;;;;;;;;;;5109294;28;20095;-77
2021/12/14 01:27:15;;;;;;;25.25;15.75;;;;;;;;;;5100152;28;20056;-77
2021/12/14 01:29:43;;;;;;;28.10;15.50;;;;;;;;;;5109663;28;20499;-77
2021/12/14 01:32:10;;;;;;;30.13;15.57;;;;;;;;;;5091604;28;20117;-77
2021/12/14 01:34:37;;;;;;;24.50;15.15;;;;;;;;;;5092321;28;20043;-77
2021/12/14 01:37:07;;;;;;;27.23;15.73;;;;;;;;;;5108971;28;20047;-77
2021/12/14 01:42:13;;;;;;;28.13;15.30;;;;;;;;;;5108729;28;20050;-77
2021/12/14 01:44:42;;;;;;;27.50;15.50;;;;;;;;;;5109242;28;20044;-77
2021/12/14 01:47:14;;;;;;;25.92;15.27;;;;;;;;;;5108510;28;20051;-77
2021/12/14 01:49:40;;;;;;;28.25;15.40;;;;;;;;;;5092616;28;20554;-77
2021/12/14 01:52:12;;;;;;;27.85;15.50;;;;;;;;;;5108787;28;20489;-81
2021/12/14 01:54:44;;;;;;;28.05;16.75;;;;;;;;;;5092237;28;20048;-83
2021/12/14 01:57:11;;;;;;;26.30;16.10;;;;;;;;;;5108669;28;20039;-77
2021/12/14 01:59:40;;;;;;;28.83;16.63;;;;;;;;;;5108933;28;20119;-82
2021/12/14 02:02:20;;;;;;;27.83;15.55;;;;;;;;;;5108503;28;20265;-83
2021/12/14 02:04:48;;;;;;;28.23;15.45;;;;;;;;;;5110585;28;20562;-77
2021/12/14 02:07:16;;;;;;;27.70;15.55;;;;;;;;;;5109150;28;20071;-82
2021/12/14 02:09:42;;;;;;;28.35;15.25;;;;;;;;;;5109284;28;20461;-82
2021/12/14 02:12:11;;;;;;;25.73;15.93;;;;;;;;;;5108066;28;20040;-77
2021/12/14 02:14:37;;;;;;;29.17;16.52;;;;;;;;;;5108852;28;20470;-78
2021/12/14 02:17:06;;;;;;;27.98;15.43;;;;;;;;;;5109925;28;20040;-78
2021/12/14 02:19:32;;;;;;;31.45;17.02;;;;;;;;;;5110174;28;20031;-82
2021/12/14 02:21:59;;;;;;;27.63;16.05;;;;;;;;;;5108532;28;20047;-78
2021/12/14 02:24:27;;;;;;;28.65;16.48;;;;;;;;;;5108626;28;20099;-78
2021/12/14 02:26:53;;;;;;;27.65;16.95;;;;;;;;;;5108561;28;20047;-77
2021/12/14 02:29:21;;;;;;;32.22;16.90;;;;;;;;;;5108824;28;20371;-82
2021/12/14 02:31:47;;;;;;;30.60;17.30;;;;;;;;;;5091857;28;20047;-82
2021/12/14 02:34:14;;;;;;;30.70;17.50;;;;;;;;;;5108166;28;20047;-77
2021/12/14 02:36:42;;;;;;;30.92;17.45;;;;;;;;;;5074804;28;20036;-78
2021/12/14 02:39:23;;;;;;;31.13;17.42;;;;;;;;;;5094103;28;20082;-83
2021/12/14 02:41:50;;;;;;;31.02;17.33;;;;;;;;;;5112895;28;20058;-78
2021/12/14 02:44:17;;;;;;;30.63;18.10;;;;;;;;;;5112245;28;20139;-78
2021/12/14 02:46:45;;;;;;;32.08;17.73;;;;;;;;;;5114336;28;20071;-78
2021/12/14 02:49:14;;;;;;;32.25;17.50;;;;;;;;;;5112521;28;20047;-78
2021/12/14 02:51:45;;;;;;;31.83;17.77;;;;;;;;;;5112672;28;20055;-78
2021/12/14 02:54:13;;;;;;;30.13;17.58;;;;;;;;;;5112407;28;20395;-77
2021/12/14 02:56:41;;;;;;;33.17;17.73;;;;;;;;;;5096134;28;20536;-78
2021/12/14 02:59:12;;;;;;;35.72;19.08;;;;;;;;;;5112325;28;20051;-78
2021/12/14 03:01:40;;;;;;;33.35;17.63;;;;;;;;;;5092568;28;20036;-77
2021/12/14 03:04:07;;;;;;;31.27;18.00;;;;;;;;;;5109137;28;20084;-77
2021/12/14 03:06:36;;;;;;;32.78;18.40;;;;;;;;;;5110975;28;20039;-77
2021/12/14 03:09:16;;;;;;;32.45;18.33;;;;;;;;;;5111257;28;20295;-78
2021/12/14 03:11:42;;;;;;;33.38;18.85;;;;;;;;;;5095368;28;20613;-77
2021/12/14 03:14:08;;;;;;;34.88;18.98;;;;;;;;;;5110992;28;20048;-83
2021/12/14 03:16:36;;;;;;;33.90;18.25;;;;;;;;;;5094540;28;20036;-77
2021/12/14 03:19:06;;;;;;;35.30;19.27;;;;;;;;;;5111270;28;20040;-83
2021/12/14 03:21:34;;;;;;;37.33;19.08;;;;;;;;;;5094949;28;20494;-83
2021/12/14 03:24:08;;;;;;;37.08;19.27;;;;;;;;;;5111290;28;20514;-83
2021/12/14 03:26:36;;;;;;;34.78;19.42;;;;;;;;;;5112067;28;20127;-83
2021/12/14 03:29:08;;;;;;;34.25;18.85;;;;;;;;;;5110875;28;20071;-77
2021/12/14 03:31:39;;;;;;;35.58;19.90;;;;;;;;;;5111569;28;20059;-77
2021/12/14 03:34:25;;;;;;;40.15;19.67;;;;;;;;;;5110944;28;20040;-83
2021/12/14 03:36:57;;;;;;;39.50;21.20;;;;;;;;;;5112127;28;20368;-77
2021/12/14 03:39:28;;;;;;;33.67;19.23;;;;;;;;;;5093985;28;20044;-77
2021/12/14 03:41:57;;;;;;;36.97;19.98;;;;;;;;;;5074304;28;20044;-77
2021/12/14 03:44:28;;;;;;;38.05;19.25;;;;;;;;;;5090404;28;20048;-78
2021/12/14 03:46:56;;;;;;;42.03;20.70;;;;;;;;;;5090920;28;20040;-78
2021/12/14 03:49:24;;;;;;;36.78;20.17;;;;;;;;;;5090691;28;20428;-77
2021/12/14 03:51:51;;;;;;;37.88;20.38;;;;;;;;;;5092714;28;20471;-77
2021/12/14 03:54:18;;;;;;;36.47;19.95;;;;;;;;;;5073555;28;20055;-77
2021/12/14 03:56:45;;;;;;;37.45;20.10;;;;;;;;;;5091431;28;20040;-77
2021/12/14 03:59:11;;;;;;;38.63;20.02;;;;;;;;;;5090582;28;20123;-78
2021/12/14 04:01:40;;;;;;;38.53;20.27;;;;;;;;;;5091126;28;20050;-78
2021/12/14 04:04:11;;;;;;;38.45;21.02;;;;;;;;;;5073489;28;20407;-77
2021/12/14 04:06:37;;;;;;;39.15;20.05;;;;;;;;;;5090595;28;20040;-78
2021/12/14 04:09:05;;;;;;;37.88;19.48;;;;;;;;;;5073414;28;20071;-78
2021/12/14 04:11:32;;;;;;;39.67;20.17;;;;;;;;;;5090908;28;20054;-78
2021/12/14 04:13:58;;;;;;;37.95;20.20;;;;;;;;;;5073552;28;20040;-77
2021/12/14 04:16:25;;;;;;;43.40;21.98;;;;;;;;;;5073275;28;20047;-77
2021/12/14 04:18:51;;;;;;;40.75;21.15;;;;;;;;;;5073908;28;20093;-77
2021/12/14 04:21:19;;;;;;;42.17;20.70;;;;;;;;;;5090077;28;20484;-77
2021/12/14 04:23:47;;;;;;;40.92;20.48;;;;;;;;;;5090606;28;20059;-77
2021/12/14 04:26:13;;;;;;;39.80;21.15;;;;;;;;;;5091309;28;20040;-77
2021/12/14 04:28:42;;;;;;;38.50;20.88;;;;;;;;;;5090663;28;20389;-77
2021/12/14 04:31:08;;;;;;;43.10;21.15;;;;;;;;;;5088597;28;20122;-83
2021/12/14 04:33:36;;;;;;;38.95;20.88;;;;;;;;;;5110713;28;20043;-83
2021/12/14 04:36:05;;;;;;;40.38;21.48;;;;;;;;;;5110776;28;20043;-83
2021/12/14 04:38:35;;;;;;;40.65;21.65;;;;;;;;;;5110991;28;20043;-77
2021/12/14 04:52:10;;;;;;;39.75;20.73;;;;;;;;;;5110263;28;20487;-83
2021/12/14 04:54:41;;;;;;;39.75;20.63;;;;;;;;;;5093074;28;20040;-83
2021/12/14 04:57:22;;;;;;;39.70;21.92;;;;;;;;;;5110342;28;20107;-82
2021/12/14 04:59:49;;;;;;;41.40;21.42;;;;;;;;;;5093759;28;20441;-83
2021/12/14 05:02:18;;;;;;;42.38;20.60;;;;;;;;;;5084940;28;20036;-77
2021/12/14 05:04:44;;;;;;;41.08;21.33;;;;;;;;;;5091492;28;20043;-77
2021/12/14 05:09:51;;;;;;;42.72;21.58;;;;;;;;;;5095611;28;20043;-83
2021/12/14 05:12:20;;;;;;;41.42;21.40;;;;;;;;;;5109760;28;20506;-77
2021/12/14 05:14:46;;;;;;;40.30;21.77;;;;;;;;;;5111115;28;20040;-77
2021/12/14 05:17:15;;;;;;;42.72;22.27;;;;;;;;;;5109580;28;20039;-78
2021/12/14 05:19:42;;;;;;;42.72;22.35;;;;;;;;;;5109659;28;20399;-77
2021/12/14 05:22:16;;;;;;;42.65;22.23;;;;;;;;;;5109399;28;20044;-83
2021/12/14 05:24:45;;;;;;;42.05;22.45;;;;;;;;;;5092382;28;20051;-83
2021/12/14 05:27:15;;;;;;;38.58;20.70;;;;;;;;;;5092427;28;20050;-83
2021/12/14 05:29:41;;;;;;;42.38;22.08;;;;;;;;;;5109866;28;20499;-82
2021/12/14 05:32:08;;;;;;;44.00;22.00;;;;;;;;;;5092205;28;20070;-82
2021/12/14 05:34:36;;;;;;;43.63;22.90;;;;;;;;;;5091976;28;20075;-77
2021/12/14 05:37:02;;;;;;;43.95;22.70;;;;;;;;;;5092757;28;20032;-77
2021/12/14 05:39:50;;;;;;;44.28;22.95;;;;;;;;;;5092542;28;20036;-82
2021/12/14 05:45:05;;;;;;;43.83;23.10;;;;;;;;;;5109389;28;20130;-82
2021/12/14 05:47:31;;;;;;;46.92;23.17;;;;;;;;;;5092275;28;20315;-83
2021/12/14 05:49:58;;;;;;;45.97;24.20;;;;;;;;;;5109490;28;20456;-82
2021/12/14 05:52:25;;;;;;;45.88;23.52;;;;;;;;;;5108921;28;20036;-77
2021/12/14 05:54:53;;;;;;;46.47;24.30;;;;;;;;;;5108823;28;20155;-77
2021/12/14 05:57:20;;;;;;;45.10;23.58;;;;;;;;;;5091822;28;20085;-78
2021/12/14 05:59:47;;;;;;;48.92;24.40;;;;;;;;;;5109136;28;20035;-77
2021/12/14 06:02:14;;;;;;;45.92;24.45;;;;;;;;;;5108741;28;20043;-77
2021/12/14 06:04:45;;;;;;;47.83;24.85;;;;;;;;;;5091686;28;20043;-77
2021/12/14 06:07:11;;;;;;;50.38;24.73;;;;;;;;;;5108748;28;20043;-77
2021/12/14 06:09:42;;;;;;;49.75;25.15;;;;;;;;;;5109031;28;20052;-77
2021/12/14 06:12:16;;;;;;;47.97;24.48;;;;;;;;;;5107518;28;20075;-78
2021/12/14 06:14:51;;;;;;;48.95;25.52;;;;;;;;;;5108873;28;20040;-77
2021/12/14 06:17:22;;;;;;;46.95;24.33;;;;;;;;;;5108690;28;20079;-78
2021/12/14 06:19:57;;;;;;;51.67;25.15;;;;;;;;;;5108686;28;20048;-77
2021/12/14 06:22:24;;;;;;;48.60;26.35;;;;;;;;;;5108442;28;20372;-83
2021/12/14 06:24:52;;;;;;;47.78;24.90;;;;;;;;;;5108471;28;20143;-83
2021/12/14 06:27:19;;;;;;;50.53;26.45;;;;;;;;;;5108531;28;20044;-83
2021/12/14 06:29:54;;;;;;;48.78;26.10;;;;;;;;;;5109109;28;20394;-83
2021/12/14 06:32:22;;;;;;;47.47;24.95;;;;;;;;;;5108202;28;20039;-77
2021/12/14 06:34:51;;;;;;;51.45;26.85;;;;;;;;;;5108545;28;20100;-83
2021/12/14 06:37:30;;;;;;;52.80;28.48;;;;;;;;;;5108559;28;20096;-83
2021/12/14 06:39:58;;;;;;;53.28;28.98;;;;;;;;;;5108989;28;20075;-83
2021/12/14 06:42:24;;;;;;;56.10;29.50;;;;;;;;;;5108443;28;20043;-83
2021/12/14 06:44:50;;;;;;;54.60;28.27;;;;;;;;;;5108963;28;20559;-83
2021/12/14 06:47:16;;;;;;;56.97;28.88;;;;;;;;;;5108521;28;20081;-83
2021/12/14 06:49:42;;;;;;;61.08;30.25;;;;;;;;;;5091672;28;20047;-83
2021/12/14 06:52:09;;;;;;;59.55;29.80;;;;;;;;;;5109823;28;20395;-83
2021/12/14 06:54:35;;;;;;;59.05;29.90;;;;;;;;;;5091792;28;20043;-82
2021/12/14 06:57:02;;;;;;;64.90;30.65;;;;;;;;;;5108567;28;20042;-83
2021/12/14 06:59:29;;;;;;;61.45;30.25;;;;;;;;;;5091282;28;20084;-83
2021/12/14 07:01:57;;;;;;;63.58;31.35;;;;;;;;;;5109058;28;20047;-83
2021/12/14 07:04:25;;;;;;;62.47;30.65;;;;;;;;;;5108686;28;20043;-83
2021/12/14 07:06:56;;;;;;;57.75;29.10;;;;;;;;;;5108504;28;20378;-83
2021/12/14 07:09:22;;;;;;;62.92;30.10;;;;;;;;;;5108552;28;20403;-83
2021/12/14 07:11:55;;;;;;;64.05;30.77;;;;;;;;;;5108400;28;20062;-83
2021/12/14 07:14:22;;;;;;;60.03;29.13;;;;;;;;;;5107904;28;20054;-76
2021/12/14 07:16:48;;;;;;;59.40;29.60;;;;;;;;;;5108122;28;20116;-76
2021/12/14 07:19:14;;;;;;;63.35;29.17;;;;;;;;;;5091377;28;20510;-76
2021/12/14 07:21:43;;;;;;;60.92;31.02;;;;;;;;;;5107777;28;20035;-76
2021/12/14 07:24:22;;;;;;;63.85;31.40;;;;;;;;;;5109230;28;20463;-82
2021/12/14 07:26:49;;;;;;;64.15;30.52;;;;;;;;;;5094725;28;20055;-77
2021/12/14 07:29:22;;;;;;;61.22;29.63;;;;;;;;;;5111773;28;20043;-77
2021/12/14 07:31:48;;;;;;;59.38;29.88;;;;;;;;;;5074163;28;20127;-76
2021/12/14 07:34:15;;;;;;;60.90;29.58;;;;;;;;;;5091145;28;20039;-76
2021/12/14 07:36:41;;;;;;;57.17;29.88;;;;;;;;;;5092412;28;20561;-76
2021/12/14 07:39:09;;;;;;;62.25;29.02;;;;;;;;;;5090943;28;20040;-76
2021/12/14 07:41:37;;;;;;;59.22;29.27;;;;;;;;;;5091264;28;20044;-76
2021/12/14 07:44:06;;;;;;;57.00;28.95;;;;;;;;;;5091525;28;20048;-82
2021/12/14 07:46:36;;;;;;;59.53;30.15;;;;;;;;;;5074615;28;20040;-82
2021/12/14 07:49:02;;;;;;;57.92;29.00;;;;;;;;;;5091772;28;20118;-82
2021/12/14 07:51:29;;;;;;;54.38;29.08;;;;;;;;;;5090899;28;20048;-82
2021/12/14 07:54:08;;;;;;;56.72;28.30;;;;;;;;;;5092253;28;20040;-82
2021/12/14 07:56:37;;;;;;;57.33;29.38;;;;;;;;;;5074598;28;20040;-82
2021/12/14 07:59:09;;;;;;;63.25;29.15;;;;;;;;;;5091272;28;20036;-82
2021/12/14 08:01:35;;;;;;;52.45;27.80;;;;;;;;;;5092471;28;20043;-82
2021/12/14 08:04:06;;;;;;;58.40;28.83;;;;;;;;;;5074232;28;20043;-82
2021/12/14 08:06:41;;;;;;;59.25;29.25;;;;;;;;;;5074122;28;20048;-82
2021/12/14 08:09:07;;;;;;;52.22;27.27;;;;;;;;;;5091316;28;20474;-82
2021/12/14 08:14:05;;;;;;;62.42;29.60;;;;;;;;;;5074115;28;20044;-82
2021/12/14 08:16:38;;;;;;;56.97;29.08;;;;;;;;;;5073215;28;20040;-76
2021/12/14 08:19:04;;;;;;;61.95;29.33;;;;;;;;;;5090803;28;20055;-76
2021/12/14 08:21:31;;;;;;;60.65;28.15;;;;;;;;;;5073449;28;20040;-76
2021/12/14 08:23:59;;;;;;;58.90;28.67;;;;;;;;;;5073367;28;20135;-76
2021/12/14 08:26:38;;;;;;;57.67;29.05;;;;;;;;;;5090285;28;20048;-76
2021/12/14 08:29:06;;;;;;;59.10;29.23;;;;;;;;;;5090363;28;20046;-76
2021/12/14 08:31:43;;;;;;;62.60;30.15;;;;;;;;;;5109304;28;20043;-76
2021/12/14 08:34:12;;;;;;;58.25;29.65;;;;;;;;;;5110060;28;20050;-76
2021/12/14 08:36:38;;;;;;;59.25;28.70;;;;;;;;;;5109334;28;20043;-76
2021/12/14 08:39:09;;;;;;;58.47;29.35;;;;;;;;;;5111010;28;20040;-76
2021/12/14 08:41:36;;;;;;;64.30;31.02;;;;;;;;;;5093707;28;20035;-76
2021/12/14 08:44:09;;;;;;;61.92;30.30;;;;;;;;;;5110569;28;20058;-76
2021/12/14 08:46:36;;;;;;;60.83;29.80;;;;;;;;;;5110668;28;20043;-76
2021/12/14 08:49:05;;;;;;;65.68;30.02;;;;;;;;;;5110678;28;20394;-77
2021/12/14 08:51:34;;;;;;;58.13;27.70;;;;;;;;;;5110486;28;20126;-77
2021/12/14 08:54:25;;;;;;;63.00;29.40;;;;;;;;;;5109983;28;20055;-82
2021/12/14 08:56:55;;;;;;;62.40;29.75;;;;;;;;;;5101108;28;20078;-82
2021/12/14 08:59:21;;;;;;;59.63;29.02;;;;;;;;;;5110699;28;20043;-82
2021/12/14 09:01:48;;;;;;;64.20;30.35;;;;;;;;;;5110631;28;20035;-82
2021/12/14 09:04:23;;;;;;;60.80;29.23;;;;;;;;;;5110174;28;20051;-82
2021/12/14 09:06:51;;;;;;;60.80;27.73;;;;;;;;;;5110287;28;20063;-82
2021/12/14 09:09:19;;;;;;;61.80;28.23;;;;;;;;;;5109551;28;20051;-77
2021/12/14 09:11:46;;;;;;;66.13;30.33;;;;;;;;;;5109869;28;20043;-77
2021/12/14 09:14:13;;;;;;;62.10;29.27;;;;;;;;;;5109204;28;20047;-82
2021/12/14 09:16:41;;;;;;;58.20;28.42;;;;;;;;;;5092598;28;20039;-82
2021/12/14 09:19:12;;;;;;;53.33;26.90;;;;;;;;;;5109502;28;20036;-82
2021/12/14 09:21:41;;;;;;;58.88;28.25;;;;;;;;;;5110584;28;20413;-82
2021/12/14 09:24:09;;;;;;;58.33;28.52;;;;;;;;;;5092057;28;20055;-82
2021/12/14 09:26:37;;;;;;;58.38;28.50;;;;;;;;;;5109785;28;20127;-82
2021/12/14 09:29:08;;;;;;;57.53;27.85;;;;;;;;;;5109665;28;20072;-82
2021/12/14 09:31:37;;;;;;;54.30;27.55;;;;;;;;;;5109741;28;20043;-82
2021/12/14 09:34:04;;;;;;;60.47;27.83;;;;;;;;;;5110717;28;20050;-82
2021/12/14 09:36:30;;;;;;;61.42;28.50;;;;;;;;;;5109779;28;20501;-82
2021/12/14 09:38:58;;;;;;;60.03;27.05;;;;;;;;;;5092438;28;20567;-82
2021/12/14 09:41:27;;;;;;;68.43;28.70;;;;;;;;;;5110510;28;20044;-82
2021/12/14 09:43:54;;;;;;;66.20;28.65;;;;;;;;;;5109470;28;20043;-82
2021/12/14 09:46:21;;;;;;;67.13;29.17;;;;;;;;;;5109324;28;20399;-82
2021/12/14 09:48:49;;;;;;;67.32;28.98;;;;;;;;;;5110583;28;20032;-82
2021/12/14 09:51:18;;;;;;;67.50;28.95;;;;;;;;;;5108955;28;20076;-82
2021/12/14 09:53:46;;;;;;;71.28;29.13;;;;;;;;;;5108813;28;20047;-82
2021/12/14 09:56:14;;;;;;;77.35;30.92;;;;;;;;;;5109028;28;20040;-82
2021/12/14 09:58:45;;;;;;;75.72;29.70;;;;;;;;;;5108935;28;20043;-82
2021/12/14 10:01:16;;;;;;;76.93;30.00;;;;;;;;;;5091973;28;20100;-82
2021/12/14 10:03:43;;;;;;;70.38;28.95;;;;;;;;;;5109236;28;20453;-81
2021/12/14 10:06:11;;;;;;;71.57;29.25;;;;;;;;;;5092119;28;20048;-81
2021/12/14 10:08:41;;;;;;;76.90;29.55;;;;;;;;;;5109305;28;20650;-82
2021/12/14 10:11:11;;;;;;;71.95;29.33;;;;;;;;;;5091827;28;20040;-82
2021/12/14 10:13:40;;;;;;;76.68;29.60;;;;;;;;;;5109130;28;20044;-82
2021/12/14 10:16:07;;;;;;;70.78;29.48;;;;;;;;;;5109044;28;20040;-82
2021/12/14 10:18:38;;;;;;;66.93;28.58;;;;;;;;;;5091988;28;20039;-82
2021/12/14 10:21:10;;;;;;;65.35;27.85;;;;;;;;;;5108769;28;20046;-82
2021/12/14 10:23:37;;;;;;;64.38;28.33;;;;;;;;;;5109924;28;20090;-82
2021/12/14 10:26:04;;;;;;;70.70;28.60;;;;;;;;;;5108721;28;20572;-82
2021/12/14 10:28:31;;;;;;;69.50;28.45;;;;;;;;;;5108645;28;20134;-82
2021/12/14 10:31:00;;;;;;;66.18;28.52;;;;;;;;;;5108511;28;20054;-77
2021/12/14 10:33:27;;;;;;;71.60;28.40;;;;;;;;;;5108445;28;20535;-77
2021/12/14 10:35:58;;;;;;;68.40;28.88;;;;;;;;;;5108847;28;20039;-77
2021/12/14 10:38:29;;;;;;;69.03;27.58;;;;;;;;;;5108297;28;20077;-77
2021/12/14 10:43:46;;;;;;;64.82;27.85;;;;;;;;;;5108465;28;20075;-77
2021/12/14 10:46:15;;;;;;;64.07;27.20;;;;;;;;;;5108337;28;20051;-77
2021/12/14 10:48:44;;;;;;;63.67;27.48;;;;;;;;;;5108523;28;20368;-77
2021/12/14 10:51:11;;;;;;;67.68;27.40;;;;;;;;;;5091117;28;20043;-82
2021/12/14 10:53:41;;;;;;;67.03;25.83;;;;;;;;;;5091616;28;20126;-82
2021/12/14 10:56:16;;;;;;;67.28;27.23;;;;;;;;;;5091371;28;20436;-77
2021/12/14 10:58:44;;;;;;;56.78;24.17;;;;;;;;;;5109376;28;20036;-82
2021/12/14 11:01:12;;;;;;;66.85;25.52;;;;;;;;;;5095455;28;20071;-77
2021/12/14 11:03:43;;;;;;;61.60;25.35;;;;;;;;;;5112632;28;20042;-76
2021/12/14 11:06:13;;;;;;;65.38;26.42;;;;;;;;;;5112155;28;20051;-77
2021/12/14 11:09:38;;;;;;;62.53;25.15;;;;;;;;;;5095767;28;20493;-77
2021/12/14 11:11:46;;;;;;;65.85;26.65;;;;;;;;;;5112333;28;20083;-82
2021/12/14 11:14:14;;;;;;;58.83;24.35;;;;;;;;;;5111836;28;20074;-82
2021/12/14 11:19:35;;;;;;;58.83;24.63;;;;;;;;;;5113174;28;20067;-82
2021/12/14 11:22:10;;;;;;;60.80;24.98;;;;;;;;;;5112382;28;20046;-82
2021/12/14 11:24:37;;;;;;;58.70;23.73;;;;;;;;;;5095022;28;20059;-76
2021/12/14 11:27:27;;;;;;;58.17;23.38;;;;;;;;;;5094744;28;20048;-76
2021/12/14 11:30:09;;;;;;;62.67;25.05;;;;;;;;;;5111771;28;20039;-77
2021/12/14 11:32:40;;;;;;;61.78;22.65;;;;;;;;;;5111696;28;20044;-77
2021/12/14 11:35:15;;;;;;;59.67;23.88;;;;;;;;;;5094490;28;20075;-82
2021/12/14 11:37:41;;;;;;;59.38;22.75;;;;;;;;;;5112059;28;20088;-83
2021/12/14 11:40:11;;;;;;;61.58;24.40;;;;;;;;;;5111694;28;20085;-82
2021/12/14 11:42:37;;;;;;;58.80;23.00;;;;;;;;;;5112251;28;20503;-82
2021/12/14 11:45:04;;;;;;;58.40;22.92;;;;;;;;;;5112586;28;20044;-77
2021/12/14 11:50:11;;;;;;;60.35;22.83;;;;;;;;;;5112765;28;20134;-76
2021/12/14 11:52:57;;;;;;;58.80;22.90;;;;;;;;;;5111690;28;20104;-77
2021/12/14 11:55:42;;;;;;;57.47;22.77;;;;;;;;;;5110492;28;20118;-76
2021/12/14 11:58:08;;;;;;;59.13;22.38;;;;;;;;;;5111362;28;20036;-76
2021/12/14 12:00:36;;;;;;;58.97;23.60;;;;;;;;;;5110993;28;20116;-76
2021/12/14 12:03:21;;;;;;;60.20;22.58;;;;;;;;;;5111314;28;20043;-77
2021/12/14 12:05:58;;;;;;;58.13;23.08;;;;;;;;;;5111127;28;20047;-76
2021/12/14 12:11:32;;;;;;;72.80;27.27;;;;;;;;;;5039571;28;20059;-76
2021/12/14 12:13:59;;;;;;;66.22;26.38;;;;;;;;;;5110654;28;20073;-77
2021/12/14 12:16:27;;;;;;;71.72;27.17;;;;;;;;;;5110856;28;20035;-76
2021/12/14 12:19:16;;;;;;;74.35;27.83;;;;;;;;;;5112358;28;20461;-77
2021/12/14 12:21:44;;;;;;;68.35;26.75;;;;;;;;;;5112434;28;20039;-76
2021/12/14 12:24:29;;;;;;;62.03;25.45;;;;;;;;;;5093633;28;20117;-77
2021/12/14 12:27:14;;;;;;;64.20;24.98;;;;;;;;;;5094063;28;20051;-77
2021/12/14 12:29:41;;;;;;;59.30;23.60;;;;;;;;;;5110895;28;20093;-76
2021/12/14 12:32:17;;;;;;;62.47;24.15;;;;;;;;;;5111177;28;20063;-76
2021/12/14 12:34:44;;;;;;;;;;;;;;;;;;5095981;28;20049;-77
2021/12/14 12:37:14;;;;;;;56.03;21.45;;;;;;;;;;5111670;28;19916;-76
2021/12/14 12:39:46;;;;;;;59.75;21.65;;;;;;;;;;5093946;28;20130;-76
2021/12/14 12:42:15;;;;;;;60.83;22.50;;;;;;;;;;5110050;28;20036;-77
2021/12/14 12:44:42;;;;;;;54.88;22.08;;;;;;;;;;5094108;28;20467;-77
2021/12/14 12:47:11;;;;;;;63.35;23.25;;;;;;;;;;5110676;28;20522;-77
2021/12/14 12:49:41;;;;;;;56.70;21.63;;;;;;;;;;5111119;28;20126;-76
2021/12/14 12:52:07;;;;;;;65.50;22.42;;;;;;;;;;5111001;28;20069;-77
2021/12/14 12:54:37;;;;;;;54.92;20.65;;;;;;;;;;5111011;28;20048;-82
2021/12/14 12:57:10;;;;;;;60.35;21.15;;;;;;;;;;5111953;28;20042;-77
2021/12/14 12:59:38;;;;;;;56.40;21.27;;;;;;;;;;5110112;28;20078;-77
2021/12/14 13:02:23;;;;;;;54.30;20.30;;;;;;;;;;5110127;28;20506;-77
2021/12/14 13:04:54;;;;;;;54.90;20.65;;;;;;;;;;5110503;28;20043;-76
2021/12/14 13:07:28;;;;;;;52.00;19.92;;;;;;;;;;5111205;28;20054;-83
2021/12/14 13:10:09;;;;;;;56.60;19.60;;;;;;;;;;5110836;28;20040;-82
2021/12/14 13:12:38;;;;;;;43.70;18.15;;;;;;;;;;5092732;28;20048;-83
2021/12/14 13:15:05;;;;;;;48.17;19.23;;;;;;;;;;5109726;28;20039;-82
2021/12/14 13:17:31;;;;;;;51.63;18.45;;;;;;;;;;5110963;28;20036;-82
2021/12/14 13:20:01;;;;;;;47.55;18.40;;;;;;;;;;5111642;28;20125;-80
2021/12/14 13:22:27;;;;;;;45.78;18.52;;;;;;;;;;5110872;28;20051;-83
2021/12/14 13:24:53;;;;;;;42.28;17.73;;;;;;;;;;5110775;28;20081;-75
2021/12/14 13:27:21;;;;;;;41.08;16.73;;;;;;;;;;5109711;28;20062;-82
2021/12/14 13:29:49;;;;;;;39.13;16.80;;;;;;;;;;5110134;28;20043;-82
2021/12/14 13:32:31;;;;;;;42.53;17.52;;;;;;;;;;5092339;28;20043;-82
2021/12/14 13:34:58;;;;;;;41.60;16.55;;;;;;;;;;5111044;28;20083;-83
2021/12/14 13:37:35;;;;;;;45.45;18.27;;;;;;;;;;5108801;28;20118;-83
2021/12/14 13:40:02;;;;;;;36.05;15.52;;;;;;;;;;5109539;28;20039;-77
2021/12/14 13:42:40;;;;;;;37.33;16.13;;;;;;;;;;5109156;28;20483;-76
2021/12/14 13:45:08;;;;;;;39.65;16.15;;;;;;;;;;5092773;28;20050;-76
2021/12/14 13:47:34;;;;;;;37.65;16.55;;;;;;;;;;5093019;28;20086;-76
2021/12/14 13:50:02;;;;;;;37.35;16.52;;;;;;;;;;5109513;28;20326;-76
2021/12/14 13:52:28;;;;;;;42.50;17.25;;;;;;;;;;5110135;28;20074;-76
2021/12/14 13:55:09;;;;;;;44.80;17.45;;;;;;;;;;5108987;28;20511;-76
2021/12/14 13:57:36;;;;;;;47.05;18.25;;;;;;;;;;5108636;28;20035;-76
2021/12/14 14:00:05;;;;;;;49.45;18.73;;;;;;;;;;5109470;28;20039;-76
2021/12/14 14:02:31;;;;;;;48.33;19.27;;;;;;;;;;5108696;28;20417;-76
2021/12/14 14:04:57;;;;;;;49.40;19.00;;;;;;;;;;5108941;28;20035;-76
2021/12/14 14:07:23;;;;;;;50.53;18.95;;;;;;;;;;5091942;28;20685;-76
2021/12/14 14:09:49;;;;;;;52.50;19.48;;;;;;;;;;5109358;28;20483;-76
2021/12/14 14:12:19;;;;;;;46.28;18.38;;;;;;;;;;5108236;28;20039;-76
2021/12/14 14:14:46;;;;;;;47.17;18.38;;;;;;;;;;5108944;28;20048;-82
2021/12/14 14:17:13;;;;;;;46.35;18.67;;;;;;;;;;5109495;28;20055;-82
2021/12/14 14:19:43;;;;;;;50.22;18.42;;;;;;;;;;5109252;28;20039;-82
2021/12/14 14:22:11;;;;;;;47.20;18.27;;;;;;;;;;5109807;28;20123;-83
2021/12/14 14:24:39;;;;;;;48.83;18.90;;;;;;;;;;5109712;28;20142;-76
2021/12/14 14:27:06;;;;;;;47.05;18.50;;;;;;;;;;5108606;28;20051;-76
2021/12/14 14:29:43;;;;;;;51.28;18.75;;;;;;;;;;5107561;28;20096;-76
2021/12/14 14:32:36;;;;;;;55.10;19.05;;;;;;;;;;5108901;28;20047;-76
2021/12/14 14:35:00;;;;;;;46.22;18.50;;;;;;;;;;5107290;28;20048;-76
2021/12/14 14:37:28;;;;;;;53.40;18.42;;;;;;;;;;5091639;28;20047;-76
2021/12/14 14:39:59;;;;;;;46.58;18.85;;;;;;;;;;5091800;28;20152;-76
2021/12/14 14:42:30;;;;;;;49.70;17.85;;;;;;;;;;5108174;28;20113;-76
2021/12/14 14:44:58;;;;;;;50.03;17.52;;;;;;;;;;5110328;28;20046;-76
2021/12/14 14:47:25;;;;;;;52.13;17.92;;;;;;;;;;5108675;28;20052;-76
2021/12/14 14:49:57;;;;;;;51.95;18.40;;;;;;;;;;5109143;28;20040;-82
2021/12/14 14:52:28;;;;;;;48.95;18.02;;;;;;;;;;5108669;28;20043;-82
2021/12/14 14:55:11;;;;;;;45.17;17.08;;;;;;;;;;5108865;28;20483;-82
2021/12/14 14:57:39;;;;;;;45.97;17.25;;;;;;;;;;5108421;28;20120;-81
2021/12/14 15:00:08;;;;;;;53.22;18.25;;;;;;;;;;5108812;28;20040;-82
2021/12/14 15:02:50;;;;;;;58.90;19.45;;;;;;;;;;5108559;28;20562;-75
2021/12/14 15:05:38;;;;;;;52.78;18.88;;;;;;;;;;5091080;28;20047;-76
2021/12/14 15:08:07;;;;;;;55.03;18.17;;;;;;;;;;5108231;28;20047;-82
2021/12/14 15:11:06;;;;;;;53.28;18.27;;;;;;;;;;5108323;28;20482;-82
2021/12/14 15:13:41;;;;;;;53.15;18.27;;;;;;;;;;5075083;28;20410;-82